createdAt,value
2024-01-14T00:00:07.956Z,21.33
2024-01-14T00:02:38.564Z,21.17
2024-01-14T00:05:07.887Z,21.53
2024-01-14T00:07:37.346Z,22.00
2024-01-14T00:10:06.554Z,19.57
2024-01-14T00:12:35.060Z,20.13
2024-01-14T00:15:03.434Z,23.27
2024-01-14T00:17:34.161Z,21.43
2024-01-14T00:20:05.259Z,21.47
2024-01-14T00:22:33.243Z,20.93
2024-01-14T00:25:01.187Z,21.50
2024-01-14T00:27:29.290Z,21.53
2024-01-14T00:29:59.490Z,21.13
2024-01-14T00:32:27.543Z,21.37
2024-01-14T00:34:55.807Z,22.33
2024-01-14T00:37:25.866Z,21.17
2024-01-14T00:39:53.914Z,19.53
2024-01-14T00:42:22.238Z,20.70
2024-01-14T00:44:50.411Z,19.23
2024-01-14T00:47:18.543Z,20.00
2024-01-14T00:49:46.642Z,20.03
2024-01-14T00:52:14.868Z,19.67
2024-01-14T00:54:44.461Z,19.87
2024-01-14T00:57:12.547Z,20.20
2024-01-14T00:59:40.623Z,19.00
2024-01-14T01:02:08.757Z,20.23
2024-01-14T01:04:36.725Z,21.07
2024-01-14T01:07:05.109Z,23.33
2024-01-14T01:09:33.282Z,22.10
2024-01-14T01:12:02.848Z,24.53
2024-01-14T01:14:31.712Z,23.53
2024-01-14T01:16:59.660Z,22.40
2024-01-14T01:19:28.318Z,22.80
2024-01-14T01:21:56.306Z,23.60
2024-01-14T01:24:24.232Z,24.20
2024-01-14T01:26:52.782Z,23.50
2024-01-14T01:29:22.773Z,24.90
2024-01-14T01:31:55.730Z,24.73
2024-01-14T01:34:26.748Z,24.10
2024-01-14T01:36:54.885Z,24.47
2024-01-14T01:39:22.936Z,26.47
2024-01-14T01:41:51.346Z,23.60
2024-01-14T01:44:19.417Z,25.13
2024-01-14T01:46:49.012Z,24.40
2024-01-14T01:49:17.156Z,26.60
2024-01-14T01:51:48.412Z,23.90
2024-01-14T01:54:16.778Z,24.73
2024-01-14T01:56:44.728Z,22.30
2024-01-14T01:59:12.666Z,24.27
2024-01-14T02:01:40.804Z,22.03
2024-01-14T02:04:10.474Z,21.50
2024-01-14T02:06:38.906Z,21.67
2024-01-14T02:09:08.883Z,22.50
2024-01-14T02:11:37.003Z,21.47
2024-01-14T02:14:04.869Z,22.20
2024-01-14T02:16:32.864Z,22.13
2024-01-14T02:19:01.125Z,21.47
2024-01-14T02:21:32.697Z,22.60
2024-01-14T02:24:04.539Z,22.70
2024-01-14T02:26:34.003Z,22.83
2024-01-14T02:29:04.508Z,21.90
2024-01-14T02:31:33.777Z,24.23
2024-01-14T02:34:02.422Z,23.40
2024-01-14T02:36:30.562Z,21.67
2024-01-14T02:38:58.760Z,21.40
2024-01-14T02:41:27.016Z,21.53
2024-01-14T02:43:56.525Z,20.87
2024-01-14T02:46:24.480Z,22.53
2024-01-14T02:48:52.410Z,20.93
2024-01-14T02:51:22.753Z,21.00
2024-01-14T02:53:51.773Z,23.37
2024-01-14T02:56:19.910Z,22.07
2024-01-14T02:58:47.914Z,21.27
2024-01-14T03:01:19.021Z,22.47
2024-01-14T03:03:47.032Z,22.80
2024-01-14T03:06:15.406Z,23.13
2024-01-14T03:08:49.701Z,22.90
2024-01-14T03:11:17.828Z,21.07
2024-01-14T03:13:45.876Z,20.70
2024-01-14T03:16:13.985Z,19.37
2024-01-14T03:18:43.621Z,20.67
2024-01-14T03:21:19.018Z,21.17
2024-01-14T03:23:47.022Z,20.20
2024-01-14T03:26:15.410Z,21.27
2024-01-14T03:28:43.555Z,21.40
2024-01-14T03:31:15.751Z,20.93
2024-01-14T03:33:45.344Z,21.30
2024-01-14T03:36:15.249Z,21.10
2024-01-14T03:38:43.507Z,20.07
2024-01-14T03:41:11.581Z,20.53
2024-01-14T03:43:39.605Z,19.30
2024-01-14T03:46:23.126Z,21.13
2024-01-14T03:48:52.678Z,20.77
2024-01-14T03:51:20.747Z,20.00
2024-01-14T03:53:48.798Z,20.80
2024-01-14T03:56:16.846Z,21.80
2024-01-14T03:58:44.872Z,21.33
2024-01-14T04:01:17.616Z,21.80
2024-01-14T04:03:45.840Z,22.13
2024-01-14T04:06:15.549Z,22.10
2024-01-14T04:08:43.697Z,23.03
2024-01-14T04:11:11.695Z,23.53
2024-01-14T04:13:39.642Z,22.50
2024-01-14T04:16:08.949Z,22.67
2024-01-14T04:18:37.486Z,25.10
2024-01-14T04:21:06.102Z,24.80
2024-01-14T04:23:35.510Z,23.93
2024-01-14T04:26:07.102Z,23.67
2024-01-14T04:28:35.075Z,23.57
2024-01-14T04:31:03.215Z,22.30
2024-01-14T04:33:31.374Z,23.40
2024-01-14T04:35:59.409Z,22.03
2024-01-14T04:38:27.303Z,23.77
2024-01-14T04:40:56.765Z,23.37
2024-01-14T04:43:24.749Z,22.37
2024-01-14T04:45:52.598Z,22.53
2024-01-14T04:48:20.802Z,24.80
2024-01-14T04:50:48.908Z,22.30
2024-01-14T04:53:16.786Z,21.47
2024-01-14T04:55:44.783Z,20.33
2024-01-14T04:58:14.196Z,21.70
2024-01-14T05:00:42.189Z,20.87
2024-01-14T05:03:10.279Z,20.33
2024-01-14T05:05:38.271Z,22.17
2024-01-14T05:08:06.707Z,21.13
2024-01-14T05:10:34.663Z,21.97
2024-01-14T05:13:02.542Z,22.03
2024-01-14T05:15:31.867Z,22.10
2024-01-14T05:18:00.226Z,21.20
2024-01-14T05:20:28.668Z,20.57
2024-01-14T05:22:56.687Z,20.93
2024-01-14T05:25:24.551Z,20.60
2024-01-14T05:27:52.577Z,20.87
2024-01-14T05:30:20.881Z,22.07
2024-01-14T05:32:50.288Z,22.03
2024-01-14T05:35:18.456Z,20.93
2024-01-14T05:37:46.434Z,21.33
2024-01-14T05:40:14.659Z,20.37
2024-01-14T05:42:43.086Z,21.33
2024-01-14T05:45:12.247Z,20.33
2024-01-14T05:47:40.512Z,19.10
2024-01-14T05:50:10.884Z,20.30
2024-01-14T05:52:38.815Z,18.93
2024-01-14T05:55:06.797Z,20.47
2024-01-14T05:57:34.780Z,20.00
2024-01-14T06:00:02.781Z,21.07
2024-01-14T06:02:30.845Z,20.43
2024-01-14T06:04:58.910Z,19.57
2024-01-14T06:07:28.321Z,19.00
2024-01-14T06:09:56.199Z,20.03
2024-01-14T06:12:24.100Z,20.97
2024-01-14T06:14:52.096Z,20.70
2024-01-14T06:17:19.954Z,19.90
2024-01-14T06:19:47.959Z,19.60
2024-01-14T06:22:15.842Z,20.37
2024-01-14T06:24:45.938Z,20.17
2024-01-14T06:27:13.790Z,18.87
2024-01-14T06:29:41.892Z,19.67
2024-01-14T06:32:09.659Z,19.37
2024-01-14T06:34:37.564Z,20.50
2024-01-14T06:37:06.100Z,19.63
2024-01-14T06:39:33.927Z,19.97
2024-01-14T06:42:03.145Z,16.70
2024-01-14T06:44:30.952Z,19.40
2024-01-14T06:46:58.737Z,17.83
2024-01-14T06:49:26.564Z,18.43
2024-01-14T06:51:54.443Z,18.67
2024-01-14T06:54:22.301Z,18.23
2024-01-14T06:56:50.078Z,19.20
2024-01-14T06:59:20.408Z,18.97
2024-01-14T07:01:48.489Z,18.87
2024-01-14T07:04:16.985Z,17.93
2024-01-14T07:06:44.919Z,17.10
2024-01-14T07:09:13.862Z,17.80
2024-01-14T07:11:41.955Z,18.63
2024-01-14T07:14:09.818Z,16.77
2024-01-14T07:16:38.969Z,18.40
2024-01-14T07:19:07.035Z,17.87
2024-01-14T07:21:34.999Z,16.80
2024-01-14T07:24:03.016Z,18.83
2024-01-14T07:26:30.952Z,18.70
2024-01-14T07:28:58.854Z,18.70
2024-01-14T07:31:29.006Z,16.87
2024-01-14T07:33:58.646Z,18.13
2024-01-14T07:36:26.684Z,19.13
2024-01-14T07:38:55.308Z,17.70
2024-01-14T07:41:23.205Z,18.77
2024-01-14T07:43:50.982Z,17.23
2024-01-14T07:46:19.817Z,18.33
2024-01-14T07:48:47.729Z,16.90
2024-01-14T07:51:17.046Z,18.20
2024-01-14T07:53:44.875Z,17.97
2024-01-14T07:56:12.817Z,25.80
2024-01-14T07:58:40.556Z,17.17
2024-01-14T08:01:08.485Z,18.27
2024-01-14T08:03:37.685Z,16.97
2024-01-14T08:06:06.479Z,16.33
2024-01-14T08:08:35.813Z,15.57
2024-01-14T08:11:03.631Z,15.43
2024-01-14T08:13:31.463Z,15.83
2024-01-14T08:16:02.698Z,16.93
2024-01-14T08:18:32.565Z,16.20
2024-01-14T08:21:01.354Z,14.60
2024-01-14T08:23:30.967Z,15.53
2024-01-14T08:26:00.293Z,14.47
2024-01-14T08:28:28.150Z,13.50
2024-01-14T08:30:56.039Z,14.67
2024-01-14T08:33:24.056Z,13.20
2024-01-14T08:35:52.102Z,12.47
2024-01-14T08:38:20.271Z,11.43
2024-01-14T08:40:48.095Z,12.77
2024-01-14T08:43:17.498Z,11.90
2024-01-14T08:45:45.367Z,10.83
2024-01-14T08:48:14.554Z,11.13
2024-01-14T08:50:42.556Z,11.60
2024-01-14T08:53:10.404Z,11.80
2024-01-14T08:55:38.244Z,11.07
2024-01-14T08:58:05.969Z,13.23
2024-01-14T09:00:35.272Z,12.93
2024-01-14T09:03:03.167Z,12.50
2024-01-14T09:05:31.015Z,13.70
2024-01-14T09:07:58.782Z,12.83
2024-01-14T09:10:26.485Z,12.10
2024-01-14T09:12:54.153Z,13.13
2024-01-14T09:15:22.097Z,12.13
2024-01-14T09:17:52.676Z,12.50
2024-01-14T09:20:21.125Z,12.67
2024-01-14T09:22:48.961Z,13.13
2024-01-14T09:25:17.129Z,12.77
2024-01-14T09:27:44.930Z,13.30
2024-01-14T09:30:14.258Z,13.13
2024-01-14T09:32:42.437Z,12.80
2024-01-14T09:35:12.030Z,12.07
2024-01-14T09:37:39.910Z,13.40
2024-01-14T09:40:09.042Z,14.57
2024-01-14T09:42:36.998Z,13.10
2024-01-14T09:45:06.863Z,12.30
2024-01-14T09:47:35.181Z,11.67
2024-01-14T09:50:04.496Z,10.90
2024-01-14T09:52:33.864Z,10.73
2024-01-14T09:55:01.899Z,10.90
2024-01-14T09:57:30.771Z,9.47
2024-01-14T09:59:59.305Z,8.40
2024-01-14T10:02:28.127Z,8.57
2024-01-14T10:04:55.928Z,9.57
2024-01-14T10:07:23.816Z,9.80
2024-01-14T10:09:53.482Z,8.77
2024-01-14T10:12:21.301Z,9.87
2024-01-14T10:14:58.411Z,9.80
2024-01-14T10:17:26.207Z,9.87
2024-01-14T10:19:54.750Z,9.27
2024-01-14T10:22:22.837Z,9.53
2024-01-14T10:24:55.149Z,11.13
2024-01-14T10:27:34.429Z,9.70
2024-01-14T10:30:06.994Z,9.70
2024-01-14T10:33:15.096Z,10.43
2024-01-14T10:35:26.627Z,9.70
2024-01-14T10:37:54.620Z,9.07
2024-01-14T10:40:23.812Z,9.50
2024-01-14T10:42:51.606Z,10.13
2024-01-14T10:45:19.851Z,10.17
2024-01-14T10:47:49.540Z,9.93
2024-01-14T10:50:19.105Z,8.77
2024-01-14T10:52:50.635Z,9.60
2024-01-14T10:55:28.276Z,10.17
2024-01-14T10:57:56.075Z,9.20
2024-01-14T11:00:24.198Z,8.97
2024-01-14T11:02:52.212Z,9.30
2024-01-14T11:05:20.195Z,9.77
2024-01-14T11:07:48.129Z,9.77
2024-01-14T11:10:16.280Z,9.27
2024-01-14T11:12:49.105Z,7.93
2024-01-14T11:15:23.264Z,8.20
2024-01-14T11:17:55.841Z,8.20
2024-01-14T11:20:32.200Z,8.43
2024-01-14T11:23:07.425Z,8.13
2024-01-14T11:25:36.249Z,9.87
2024-01-14T11:28:07.666Z,9.10
2024-01-14T11:30:51.170Z,7.87
2024-01-14T11:33:29.183Z,8.00
2024-01-14T11:35:57.601Z,9.00
2024-01-14T11:38:35.644Z,8.90
2024-01-14T11:41:25.643Z,8.07
2024-01-14T11:43:55.782Z,8.57
2024-01-14T11:46:52.616Z,8.30
2024-01-14T11:49:25.557Z,9.03
2024-01-14T11:51:54.067Z,8.87
2024-01-14T11:54:22.965Z,8.70
2024-01-14T11:56:50.841Z,8.30
2024-01-14T11:59:34.163Z,8.17
2024-01-14T12:02:16.099Z,8.17
2024-01-14T12:04:47.330Z,7.87
2024-01-14T12:07:21.813Z,8.00
2024-01-14T12:09:54.367Z,8.30
2024-01-14T12:12:23.731Z,8.53
2024-01-14T12:14:53.936Z,7.80
2024-01-14T12:17:21.992Z,8.17
2024-01-14T12:19:57.822Z,8.60
2024-01-14T12:22:26.315Z,8.17
2024-01-14T12:24:54.303Z,9.67
2024-01-14T12:27:22.476Z,8.80
2024-01-14T12:29:50.632Z,7.33
2024-01-14T12:32:20.234Z,8.20
2024-01-14T12:34:51.182Z,7.67
2024-01-14T12:37:19.236Z,8.30
2024-01-14T12:39:47.310Z,7.20
2024-01-14T12:42:15.426Z,8.50
2024-01-14T12:44:45.077Z,7.70
2024-01-14T12:47:13.378Z,8.20
2024-01-14T12:49:42.848Z,7.43
2024-01-14T12:52:11.602Z,7.73
2024-01-14T12:54:40.502Z,8.60
2024-01-14T12:59:39.496Z,8.97
2024-01-14T13:02:07.614Z,8.67
2024-01-14T13:04:35.707Z,8.67
2024-01-14T13:07:12.304Z,9.67
2024-01-14T13:09:41.885Z,9.13
2024-01-14T13:12:10.439Z,10.13
2024-01-14T13:14:50.722Z,10.17
2024-01-14T13:17:18.855Z,9.70
2024-01-14T13:19:47.459Z,9.27
2024-01-14T13:22:17.316Z,9.57
2024-01-14T13:24:45.531Z,7.77
2024-01-14T13:27:14.001Z,10.20
2024-01-14T13:29:42.220Z,9.80
2024-01-14T13:32:10.593Z,10.13
2024-01-14T13:34:38.771Z,10.50
2024-01-14T13:37:06.937Z,8.73
2024-01-14T13:39:36.441Z,9.30
2024-01-14T13:42:04.575Z,9.23
2024-01-14T13:44:32.610Z,8.33
2024-01-14T13:47:01.039Z,8.93
2024-01-14T13:49:29.422Z,9.37
2024-01-14T13:51:57.664Z,9.07
2024-01-14T13:54:25.820Z,7.70
2024-01-14T13:56:56.088Z,8.53
2024-01-14T13:59:27.222Z,8.00
2024-01-14T14:01:58.984Z,8.53
2024-01-14T14:04:28.173Z,7.17
2024-01-14T14:06:56.569Z,7.43
2024-01-14T14:09:26.580Z,7.47
2024-01-14T14:11:56.479Z,6.93
2024-01-14T14:14:24.636Z,7.63
2024-01-14T14:16:52.713Z,7.53
2024-01-14T14:19:23.077Z,7.90
2024-01-14T14:21:59.683Z,8.93
2024-01-14T14:24:33.289Z,8.37
2024-01-14T14:27:09.743Z,8.63
2024-01-14T14:29:38.331Z,7.90
2024-01-14T14:32:09.014Z,8.33
2024-01-14T14:34:40.087Z,7.87
2024-01-14T14:37:09.502Z,8.47
2024-01-14T14:39:37.742Z,8.27
2024-01-14T14:42:08.388Z,7.40
2024-01-14T14:44:37.163Z,8.20
2024-01-14T14:47:18.640Z,8.20
2024-01-14T14:49:48.858Z,7.50
2024-01-14T14:52:17.562Z,8.10
2024-01-14T14:54:46.950Z,7.60
2024-01-14T14:57:17.152Z,8.93
2024-01-14T14:59:47.761Z,8.93
2024-01-14T15:02:21.650Z,8.17
2024-01-14T15:04:53.093Z,9.50
2024-01-14T15:07:21.593Z,9.87
2024-01-14T15:09:50.331Z,10.13
2024-01-14T15:12:19.929Z,9.50
2024-01-14T15:14:51.918Z,9.97
2024-01-14T15:17:24.125Z,9.57
2024-01-14T15:19:54.876Z,10.33
2024-01-14T15:22:23.358Z,10.50
2024-01-14T15:25:00.212Z,9.57
2024-01-14T15:27:35.147Z,9.40
2024-01-14T15:30:03.904Z,9.73
2024-01-14T15:32:57.281Z,10.10
2024-01-14T15:35:35.506Z,9.67
2024-01-14T15:38:11.772Z,10.03
2024-01-14T15:40:47.770Z,9.40
2024-01-14T15:43:37.188Z,9.67
2024-01-14T15:46:07.623Z,9.70
2024-01-14T15:48:44.183Z,9.47
2024-01-14T15:51:17.170Z,9.00
2024-01-14T15:54:01.040Z,9.27
2024-01-14T15:56:42.520Z,9.70
2024-01-14T15:59:22.538Z,9.20
2024-01-14T16:01:58.174Z,8.07
2024-01-14T16:04:49.071Z,10.53
2024-01-14T16:07:20.988Z,8.97
2024-01-14T16:09:53.015Z,8.47
2024-01-14T16:12:41.389Z,9.83
2024-01-14T16:15:11.897Z,9.33
2024-01-14T16:17:42.311Z,8.47
2024-01-14T16:20:14.749Z,9.83
2024-01-14T16:22:55.109Z,8.77
2024-01-14T16:25:24.078Z,8.37
2024-01-14T16:28:01.685Z,9.27
2024-01-14T16:30:32.550Z,11.13
2024-01-14T16:33:03.311Z,10.63
2024-01-14T16:35:40.486Z,9.83
2024-01-14T16:38:17.501Z,11.13
2024-01-14T16:40:56.436Z,10.37
2024-01-14T16:43:30.113Z,14.13
2024-01-14T16:46:04.218Z,14.10
2024-01-14T16:48:44.508Z,12.13
2024-01-14T16:51:14.189Z,9.53
2024-01-14T16:53:46.737Z,15.27
2024-01-14T16:56:19.185Z,14.57
2024-01-14T16:58:48.394Z,12.30
2024-01-14T17:01:20.537Z,12.10
2024-01-14T17:03:51.005Z,12.77
2024-01-14T17:06:25.546Z,13.47
2024-01-14T17:09:02.634Z,10.63
2024-01-14T17:12:09.380Z,10.60
2024-01-14T17:18:01.347Z,16.70
2024-01-14T17:20:40.694Z,13.47
2024-01-14T17:23:32.691Z,12.73
2024-01-14T17:26:08.279Z,12.73
2024-01-14T17:28:42.733Z,12.70
2024-01-14T17:31:27.253Z,12.03
2024-01-14T17:34:24.206Z,11.57
2024-01-14T17:36:56.871Z,11.83
2024-01-14T17:39:39.098Z,11.63
2024-01-14T17:42:17.617Z,11.07
2024-01-14T17:44:58.956Z,11.63
2024-01-14T17:47:37.416Z,10.77
2024-01-14T17:50:31.349Z,11.33
2024-01-14T17:56:16.137Z,11.63
2024-01-14T17:59:00.413Z,11.30
2024-01-14T18:01:28.697Z,11.37
2024-01-14T18:03:56.962Z,10.87
2024-01-14T18:06:26.442Z,12.87
2024-01-14T18:08:56.305Z,13.07
2024-01-14T18:11:24.277Z,12.47
2024-01-14T18:13:52.467Z,12.97
2024-01-14T18:16:20.524Z,12.53
2024-01-14T18:18:56.108Z,15.83
2024-01-14T18:21:25.229Z,13.90
2024-01-14T18:23:54.650Z,13.40
2024-01-14T18:26:25.514Z,12.20
2024-01-14T18:28:53.658Z,12.63
2024-01-14T18:31:26.393Z,13.97
2024-01-14T18:33:54.625Z,15.00
2024-01-14T18:36:25.055Z,12.60
2024-01-14T18:38:54.321Z,12.23
2024-01-14T18:41:22.298Z,12.63
2024-01-14T18:43:50.407Z,12.97
2024-01-14T18:46:18.476Z,12.33
2024-01-14T18:48:46.537Z,12.70
2024-01-14T18:51:14.615Z,12.53
2024-01-14T18:53:44.319Z,13.93
2024-01-14T18:56:13.804Z,14.03
2024-01-14T18:58:41.846Z,13.93
2024-01-14T19:01:10.099Z,14.37
2024-01-14T19:03:40.479Z,13.67
2024-01-14T19:06:08.797Z,15.53
2024-01-14T19:08:38.055Z,13.60
2024-01-14T19:11:07.176Z,13.83
2024-01-14T19:13:36.453Z,13.53
2024-01-14T19:16:04.749Z,14.13
2024-01-14T19:18:33.341Z,13.23
2024-01-14T19:21:04.093Z,13.27
2024-01-14T19:23:34.261Z,12.40
2024-01-14T19:26:04.538Z,13.50
2024-01-14T19:28:32.609Z,12.77
2024-01-14T19:31:04.640Z,13.13
2024-01-14T19:33:33.977Z,14.13
2024-01-14T19:36:03.627Z,13.60
2024-01-14T19:38:31.785Z,14.40
2024-01-14T19:41:00.969Z,15.40
2024-01-14T19:43:33.344Z,15.27
2024-01-14T19:46:34.422Z,15.57
2024-01-14T19:49:03.625Z,15.97
2024-01-14T19:51:35.304Z,15.37
2024-01-14T19:54:04.983Z,12.30
2024-01-14T19:56:40.000Z,13.03
2024-01-14T19:59:07.096Z,15.23
2024-01-14T20:01:36.557Z,13.10
2024-01-14T20:04:05.588Z,13.67
2024-01-14T20:06:33.580Z,12.50
2024-01-14T20:09:03.965Z,13.80
2024-01-14T20:11:32.109Z,13.03
2024-01-14T20:14:04.495Z,13.13
2024-01-14T20:16:33.976Z,13.00
2024-01-14T20:19:06.900Z,13.23
2024-01-14T20:21:35.428Z,12.10
2024-01-14T20:24:10.933Z,12.70
2024-01-14T20:26:38.776Z,13.30
2024-01-14T20:29:06.919Z,13.60
2024-01-14T20:31:36.082Z,13.60
2024-01-14T20:34:06.135Z,14.00
2024-01-14T20:36:34.210Z,15.07
2024-01-14T20:39:02.940Z,14.67
2024-01-14T20:41:31.184Z,13.57
2024-01-14T20:44:05.218Z,12.80
2024-01-14T20:46:33.686Z,14.53
2024-01-14T20:49:01.927Z,13.23
2024-01-14T20:51:33.990Z,14.07
2024-01-14T20:54:10.797Z,14.13
2024-01-14T20:56:40.690Z,13.30
2024-01-14T20:59:18.279Z,13.07
2024-01-14T21:01:48.331Z,12.97
2024-01-14T21:04:17.222Z,11.17
2024-01-14T21:07:02.689Z,13.70
2024-01-14T21:09:32.201Z,12.00
2024-01-14T21:12:01.128Z,11.97
2024-01-14T21:14:30.058Z,12.27
2024-01-14T21:16:59.473Z,12.90
2024-01-14T21:19:32.408Z,13.00
2024-01-14T21:22:08.469Z,11.97
2024-01-14T21:24:37.113Z,12.83
2024-01-14T21:27:08.815Z,13.07
2024-01-14T21:29:37.969Z,14.37
2024-01-14T21:32:11.925Z,14.93
2024-01-14T21:34:40.750Z,14.90
2024-01-14T21:37:13.666Z,14.33
2024-01-14T21:39:44.014Z,16.00
2024-01-14T21:42:26.727Z,15.53
2024-01-14T21:44:58.166Z,15.47
2024-01-14T21:47:26.909Z,14.77
2024-01-14T21:49:57.297Z,14.90
2024-01-14T21:52:27.436Z,15.57
2024-01-14T21:55:01.790Z,13.37
2024-01-14T21:57:35.897Z,16.07
2024-01-14T22:00:13.858Z,14.30
2024-01-14T22:02:42.742Z,14.60
2024-01-14T22:05:11.099Z,14.53
2024-01-14T22:07:40.421Z,14.37
2024-01-14T22:10:09.233Z,14.67
2024-01-14T22:12:37.362Z,14.53
2024-01-14T22:15:08.397Z,15.47
2024-01-14T22:17:37.104Z,15.63
2024-01-14T22:20:08.822Z,14.73
2024-01-14T22:22:37.252Z,14.67
2024-01-14T22:25:12.087Z,16.23
2024-01-14T22:27:40.777Z,15.00
2024-01-14T22:30:15.483Z,15.13
2024-01-14T22:32:44.150Z,16.70
2024-01-14T22:35:13.623Z,15.40
2024-01-14T22:37:41.849Z,16.07
2024-01-14T22:40:12.196Z,16.27
2024-01-14T22:42:40.441Z,16.23
2024-01-14T22:45:08.401Z,16.80
2024-01-14T22:47:36.777Z,16.30
2024-01-14T22:50:05.426Z,15.77
2024-01-14T22:52:33.363Z,16.00
2024-01-14T22:55:01.288Z,16.33
2024-01-14T22:57:32.553Z,16.90
2024-01-14T23:00:00.774Z,16.57
2024-01-14T23:02:28.956Z,16.97
2024-01-14T23:04:56.923Z,17.33
2024-01-14T23:07:25.001Z,16.03
2024-01-14T23:09:53.597Z,14.53
2024-01-14T23:12:21.590Z,15.93
2024-01-14T23:14:53.902Z,15.03
2024-01-14T23:17:22.195Z,16.17
2024-01-14T23:19:53.046Z,16.43
2024-01-14T23:22:21.007Z,16.70
2024-01-14T23:24:50.813Z,16.97
2024-01-14T23:27:18.778Z,18.13
2024-01-14T23:29:47.423Z,15.97
2024-01-14T23:32:23.075Z,16.00
2024-01-14T23:34:51.343Z,16.10
2024-01-14T23:37:19.413Z,16.50
2024-01-14T23:39:50.526Z,17.43
2024-01-14T23:42:18.714Z,16.43
2024-01-14T23:44:46.735Z,18.20
2024-01-14T23:47:14.665Z,17.37
2024-01-14T23:49:46.946Z,17.33
2024-01-14T23:52:14.910Z,16.37
2024-01-14T23:54:42.829Z,15.93
2024-01-14T23:57:10.862Z,21.88
2024-01-14T23:59:37.963Z,17.47
